Time;durP1;ratioP1;P1;durP2;ratioP2;P2;SDS_P1;SDS_P2;PMS_P1;PMS_P2;Temp;Humidity;BMP_temperature;BMP_pressure;BME280_temperature;BME280_humidity;BME280_pressure;Samples;Min_cycle;Max_cycle;Signal;HPM_P1;HPM_P2
2024/03/09 00:01:29;;;;;;;;;0.00;0.00;;;;;14.23;89.85;99631.31;5138891;27;45182;-83
2024/03/09 00:03:56;;;;;;;;;0.00;0.00;;;;;14.17;89.11;99616.84;5138766;27;45262;-83
2024/03/09 00:06:21;;;;;;;;;0.00;0.00;;;;;14.13;90.70;99618.78;5139040;27;45340;-83
2024/03/09 00:08:47;;;;;;;;;0.00;0.00;;;;;14.16;91.12;99624.78;5120551;27;45471;-83
2024/03/09 00:11:13;;;;;;;;;0.00;0.00;;;;;14.16;89.70;99619.53;5129174;27;45399;-84
2024/03/09 00:13:42;;;;;;;;;0.00;0.00;;;;;14.16;90.02;99617.75;5118161;27;45436;-84
2024/03/09 00:16:08;;;;;;;;;0.00;0.00;;;;;14.08;91.18;99617.41;5100425;27;45326;-83
2024/03/09 00:18:34;;;;;;;;;0.00;0.00;;;;;14.11;90.91;99617.19;5117691;27;45989;-83
2024/03/09 00:20:59;;;;;;;;;0.00;0.00;;;;;14.10;90.77;99613.75;5134280;27;45484;-83
2024/03/09 00:23:27;;;;;;;;;0.00;0.00;;;;;14.06;91.92;99620.09;5138595;27;59758;-83
2024/03/09 00:25:53;;;;;;;;;0.00;0.00;;;;;14.04;91.44;99613.25;5139181;27;45583;-83
2024/03/09 00:28:18;;;;;;;;;0.00;0.00;;;;;14.01;91.32;99609.06;5139362;27;46085;-83
2024/03/09 00:30:44;;;;;;;;;0.00;0.00;;;;;14.04;91.54;99605.41;5138053;27;45332;-83
2024/03/09 00:33:10;;;;;;;;;0.00;0.00;;;;;14.00;92.29;99596.06;5139020;27;45271;-83
2024/03/09 00:35:39;;;;;;;;;0.00;0.00;;;;;14.01;92.40;99596.00;5138114;27;45507;-83
2024/03/09 00:38:04;;;;;;;;;0.00;0.00;;;;;13.99;91.85;99597.84;5120860;27;46245;-83
2024/03/09 00:40:29;;;;;;;;;0.00;0.00;;;;;14.02;92.35;99591.59;5139296;27;45227;-83
2024/03/09 00:42:56;;;;;;;;;0.00;0.00;;;;;13.99;92.21;99584.78;5102640;27;60651;-83
2024/03/09 00:45:22;;;;;;;;;0.00;0.00;;;;;13.99;92.40;99584.78;5120782;27;45406;-83
2024/03/09 00:47:48;;;;;;;;;0.00;0.00;;;;;13.96;92.76;99581.50;5138458;27;45428;-83
2024/03/09 00:50:15;;;;;;;;;0.00;0.00;;;;;13.94;92.93;99585.03;5136348;27;45374;-83
2024/03/09 00:52:44;;;;;;;;;0.00;0.00;;;;;13.91;93.47;99580.03;5138630;27;45383;-83
2024/03/09 00:55:15;;;;;;;;;0.00;0.00;;;;;13.86;93.88;99579.47;5120486;27;45505;-83
2024/03/09 00:57:50;;;;;;;;;0.00;0.00;;;;;13.86;93.81;99579.47;5138690;27;47262;-83
2024/03/09 01:00:18;;;;;;;;;0.00;0.00;;;;;13.81;94.94;99575.44;5121138;27;45437;-82
2024/03/09 01:02:45;;;;;;;;;0.00;0.00;;;;;13.82;94.52;99574.50;5136883;27;45348;-83
2024/03/09 01:05:11;;;;;;;;;0.00;0.00;;;;;13.80;95.10;99560.66;5138132;27;45600;-83
2024/03/09 01:07:37;;;;;;;;;0.00;0.00;;;;;13.79;95.65;99549.38;5118316;27;45424;-83
2024/03/09 01:10:05;;;;;;;;;0.00;0.00;;;;;13.74;96.96;99544.44;5119389;27;45456;-83
2024/03/09 01:12:34;;;;;;;;;0.00;0.00;;;;;13.73;96.18;99544.53;5119263;27;45530;-83
2024/03/09 01:15:00;;;;;;;;;1.00;1.00;;;;;13.74;96.39;99543.56;5137737;27;45166;-81
2024/03/09 01:17:26;;;;;;;;;0.00;0.00;;;;;13.70;95.97;99536.84;5119662;27;45486;-83
2024/03/09 01:19:52;;;;;;;;;0.00;0.00;;;;;13.69;97.55;99545.66;5138325;27;45505;-83
2024/03/09 01:22:17;;;;;;;;;0.00;0.00;;;;;13.72;97.07;99540.22;5119279;27;45507;-83
2024/03/09 01:24:44;;;;;;;;;0.00;0.00;;;;;13.69;97.50;99540.41;5119606;27;45455;-82
2024/03/09 01:27:10;;;;;;;;;0.00;0.00;;;;;13.65;97.16;99539.78;5137451;27;45245;-83
2024/03/09 01:29:35;;;;;;;;;0.00;0.00;;;;;13.65;97.55;99533.66;5119588;27;45340;-83
2024/03/09 01:32:05;;;;;;;;;0.00;0.00;;;;;13.62;97.68;99539.13;5137866;27;45417;-82
2024/03/09 01:34:31;;;;;;;;;0.00;0.00;;;;;13.59;98.06;99534.06;5138262;27;45500;-82
2024/03/09 01:36:57;;;;;;;;;0.00;0.00;;;;;13.56;98.17;99535.09;5137812;27;46009;-83
2024/03/09 01:39:25;;;;;;;;;0.00;0.00;;;;;13.55;99.08;99539.47;5119343;27;45434;-83
2024/03/09 01:41:53;;;;;;;;;0.00;0.00;;;;;13.77;97.89;99529.50;5136640;27;45384;-82
2024/03/09 01:44:20;;;;;;;;;0.00;0.00;;;;;13.57;98.55;99518.47;5119057;27;45239;-83
2024/03/09 01:46:47;;;;;;;;;0.00;0.00;;;;;13.55;98.94;99518.53;5137984;27;46484;-83
2024/03/09 01:49:12;;;;;;;;;0.00;0.00;;;;;13.49;99.83;99515.47;5119585;27;45393;-83
2024/03/09 01:51:39;;;;;;;;;0.00;0.00;;;;;13.44;99.37;99518.34;5137722;27;45440;-83
2024/03/09 01:54:10;;;;;;;;;0.00;0.00;;;;;13.44;98.90;99512.28;5137105;27;45469;-83
2024/03/09 01:56:37;;;;;;;;;0.00;0.00;;;;;13.42;99.69;99494.09;5126592;27;46158;-82
2024/03/09 01:59:03;;;;;;;;;0.00;0.00;;;;;13.38;99.79;99494.38;5119017;27;45454;-82
2024/03/09 02:01:30;;;;;;;;;0.00;0.00;;;;;13.37;100.00;99501.34;5119235;27;45470;-83
2024/03/09 02:03:56;;;;;;;;;0.00;0.00;;;;;13.36;100.00;99497.06;5119163;27;45422;-82
2024/03/09 02:06:27;;;;;;;;;0.00;0.00;;;;;13.36;100.00;99490.06;5119110;27;45780;-83
2024/03/09 02:08:56;;;;;;;;;0.00;0.00;;;;;13.35;100.00;99488.41;5119301;27;45409;-83
2024/03/09 02:11:21;;;;;;;;;0.00;0.00;;;;;13.35;100.00;99487.53;5109428;27;45489;-83
2024/03/09 02:13:47;;;;;;;;;0.00;0.00;;;;;13.29;100.00;99478.28;5121313;27;45449;-83
2024/03/09 02:16:12;;;;;;;;;0.00;0.00;;;;;13.29;100.00;99480.06;5140318;27;54379;-83
2024/03/09 02:18:39;;;;;;;;;0.00;0.00;;;;;13.26;100.00;99475.84;5140002;27;63634;-83
2024/03/09 02:21:08;;;;;;;;;0.00;0.00;;;;;13.22;100.00;99469.13;5141140;27;45337;-83
2024/03/09 02:23:35;;;;;;;;;0.00;0.00;;;;;13.15;100.00;99458.22;5122784;27;45550;-83
2024/03/09 02:26:01;;;;;;;;;0.00;0.00;;;;;13.16;100.00;99464.25;5140481;27;46587;-83
2024/03/09 02:28:27;;;;;;;;;0.00;0.00;;;;;13.15;100.00;99460.81;5140460;27;45274;-83
2024/03/09 02:30:54;;;;;;;;;0.00;0.00;;;;;13.13;100.00;99443.53;5100674;27;45342;-83
2024/03/09 02:33:20;;;;;;;;;0.00;0.00;;;;;13.17;100.00;99439.84;5119964;27;45516;-82
2024/03/09 02:35:45;;;;;;;;;0.00;0.00;;;;;13.15;100.00;99449.53;5119865;27;46174;-83
2024/03/09 02:38:10;;;;;;;;;0.00;0.00;;;;;13.07;100.00;99454.38;5119697;27;45606;-83
2024/03/09 02:40:36;;;;;;;;;0.00;0.00;;;;;13.05;100.00;99443.16;5084011;27;49977;-83
2024/03/09 02:43:05;;;;;;;;;0.00;0.00;;;;;13.02;100.00;99440.72;5100720;27;45366;-83
2024/03/09 02:45:31;;;;;;;;;0.00;0.00;;;;;13.04;100.00;99433.63;5127709;27;47257;-83
2024/03/09 02:47:56;;;;;;;;;0.00;0.00;;;;;13.04;100.00;99434.50;5139032;27;45809;-83
2024/03/09 02:50:26;;;;;;;;;0.00;0.00;;;;;13.08;100.00;99416.88;5117910;27;52471;-83
2024/03/09 02:52:52;;;;;;;;;0.00;0.00;;;;;13.02;100.00;99419.84;5118472;27;45420;-83
2024/03/09 02:55:17;;;;;;;;;0.00;0.00;;;;;12.97;100.00;99413.13;5119365;27;46378;-83
2024/03/09 02:57:42;;;;;;;;;0.00;0.00;;;;;13.03;100.00;99424.13;5119073;27;45372;-83
2024/03/09 03:00:11;;;;;;;;;0.00;0.00;;;;;13.00;100.00;99419.09;5122433;27;45476;-84
2024/03/09 03:05:23;;;;;;;;;0.00;0.00;;;;;12.87;100.00;99411.16;5124581;27;45881;-82
2024/03/09 03:07:51;;;;;;;;;0.00;0.00;;;;;12.96;100.00;99407.97;5121694;27;45327;-83
2024/03/09 03:10:17;;;;;;;;;0.00;0.00;;;;;12.95;100.00;99412.38;5139790;27;45460;-83
2024/03/09 03:12:44;;;;;;;;;0.00;0.00;;;;;12.92;100.00;99404.72;5119450;27;45283;-83
2024/03/09 03:15:11;;;;;;;;;0.00;0.00;;;;;12.89;100.00;99406.66;5119031;27;45927;-82
2024/03/09 03:17:37;;;;;;;;;0.00;0.00;;;;;12.83;100.00;99413.09;5119317;27;45466;-83
2024/03/09 03:20:09;;;;;;;;;0.00;0.00;;;;;12.86;100.00;99410.31;5100875;27;45486;-83
2024/03/09 03:22:37;;;;;;;;;0.00;0.00;;;;;12.85;100.00;99416.47;5119489;27;45544;-83
2024/03/09 03:25:05;;;;;;;;;0.00;0.00;;;;;12.86;100.00;99414.72;5100887;27;45387;-83
2024/03/09 03:27:31;;;;;;;;;0.00;0.00;;;;;12.76;100.00;99414.41;5099677;27;45486;-84
2024/03/09 03:29:56;;;;;;;;;0.00;0.00;;;;;12.74;100.00;99401.44;5119216;27;45430;-83
2024/03/09 03:32:22;;;;;;;;;0.00;0.00;;;;;12.72;100.00;99403.31;5135175;27;45770;-82
2024/03/09 03:34:50;;;;;;;;;0.00;0.00;;;;;12.73;100.00;99406.75;5139583;27;45388;-83
2024/03/09 03:37:17;;;;;;;;;0.00;0.00;;;;;12.69;100.00;99394.81;5139767;27;45425;-83
2024/03/09 03:39:43;;;;;;;;;0.00;0.00;;;;;12.69;100.00;99395.66;5139759;27;45396;-83
2024/03/09 03:42:08;;;;;;;;;0.00;0.00;;;;;12.70;100.00;99399.09;5139351;27;45543;-82
2024/03/09 03:44:35;;;;;;;;;0.00;0.00;;;;;12.91;100.00;99384.78;5139184;27;55962;-83
2024/03/09 03:47:01;;;;;;;;;0.00;0.00;;;;;12.63;100.00;99382.09;5121041;27;45498;-83
2024/03/09 03:49:27;;;;;;;;;0.75;0.75;;;;;12.63;100.00;99382.09;5138496;27;45567;-82
2024/03/09 03:51:53;;;;;;;;;0.00;0.00;;;;;12.59;100.00;99374.47;5100318;27;45531;-83
2024/03/09 03:54:22;;;;;;;;;0.00;0.00;;;;;12.58;100.00;99372.78;5099802;27;47766;-83
2024/03/09 03:56:47;;;;;;;;;0.00;0.00;;;;;12.55;100.00;99367.72;5118024;27;45286;-83
2024/03/09 03:59:13;;;;;;;;;0.00;0.00;;;;;12.57;100.00;99365.03;5119269;27;45450;-83
2024/03/09 04:01:39;;;;;;;;;0.00;0.00;;;;;12.63;100.00;99362.09;5118720;27;45394;-83
2024/03/09 04:04:04;;;;;;;;;0.00;0.00;;;;;12.63;100.00;99356.88;5118322;27;46481;-83
2024/03/09 04:06:35;;;;;;;;;0.00;0.00;;;;;12.57;100.00;99344.16;5127001;27;45285;-83
2024/03/09 04:09:01;;;;;;;;;0.00;0.00;;;;;12.59;100.00;99355.34;5103017;27;45361;-83
2024/03/09 04:11:32;;;;;;;;;0.00;0.00;;;;;12.56;100.00;99348.53;5110203;27;45584;-82
2024/03/09 04:13:58;;;;;;;;;0.00;0.00;;;;;12.49;100.00;99349.84;5100874;27;46252;-83
2024/03/09 04:16:23;;;;;;;;;0.00;0.00;;;;;12.46;100.00;99350.03;5100366;27;45324;-83
2024/03/09 04:18:49;;;;;;;;;0.00;0.00;;;;;12.52;100.00;99356.66;5118024;27;54140;-83
2024/03/09 04:21:16;;;;;;;;;0.00;0.00;;;;;12.54;100.00;99353.03;5100166;27;45389;-83
2024/03/09 04:23:42;;;;;;;;;0.00;0.00;;;;;12.54;100.00;99344.34;5120239;27;46580;-82
2024/03/09 04:26:08;;;;;;;;;0.00;0.00;;;;;12.54;100.00;99352.19;5121550;27;45259;-83
2024/03/09 04:28:33;;;;;;;;;0.00;0.00;;;;;12.49;100.00;99344.63;5139666;27;45357;-83
2024/03/09 04:30:59;;;;;;;;;0.00;0.00;;;;;12.52;100.00;99347.06;5120420;27;45554;-83
2024/03/09 04:33:26;;;;;;;;;0.00;0.00;;;;;12.54;100.00;99350.41;5138026;27;47535;-82
2024/03/09 04:35:52;;;;;;;;;0.00;0.00;;;;;12.57;100.00;99350.25;5120946;27;45354;-83
2024/03/09 04:38:18;;;;;;;;;0.00;0.00;;;;;12.59;100.00;99350.13;5137984;27;45341;-83
2024/03/09 04:40:44;;;;;;;;;0.00;0.00;;;;;12.56;100.00;99358.97;5139245;27;45508;-84
2024/03/09 04:43:13;;;;;;;;;0.00;0.00;;;;;12.59;100.00;99352.72;5137499;27;45535;-84
2024/03/09 04:45:39;;;;;;;;;0.00;0.00;;;;;12.61;100.00;99353.50;5138615;27;45472;-83
2024/03/09 04:48:05;;;;;;;;;0.00;0.00;;;;;12.57;100.00;99349.38;5139126;27;45306;-83
2024/03/09 04:50:34;;;;;;;;;0.00;0.00;;;;;12.63;100.00;99349.03;5138386;27;45519;-83
2024/03/09 04:53:05;;;;;;;;;0.00;0.00;;;;;12.63;100.00;99346.41;5138356;27;45363;-83
2024/03/09 04:55:31;;;;;;;;;0.00;0.00;;;;;12.61;100.00;99344.81;5137555;27;45565;-82
2024/03/09 04:57:59;;;;;;;;;0.00;0.00;;;;;12.64;100.00;99339.41;5119537;27;45256;-83
2024/03/09 05:00:29;;;;;;;;;0.00;0.00;;;;;12.61;100.00;99332.63;5138430;27;45797;-82
2024/03/09 05:02:54;;;;;;;;;0.00;0.00;;;;;12.59;100.00;99343.16;5118546;27;46501;-83
2024/03/09 05:05:20;;;;;;;;;0.00;0.00;;;;;12.48;100.00;99342.94;5138087;27;46149;-82
2024/03/09 05:07:53;;;;;;;;;0.00;0.00;;;;;12.25;100.00;99346.88;5137722;27;45399;-83
2024/03/09 05:10:22;;;;;;;;;0.00;0.00;;;;;12.17;100.00;99344.72;5137644;27;45170;-83
2024/03/09 05:12:54;;;;;;;;;0.00;0.00;;;;;12.12;100.00;99335.50;5098968;27;46360;-83
2024/03/09 05:15:30;;;;;;;;;0.00;0.00;;;;;12.12;100.00;99330.28;5124055;27;45409;-82
2024/03/09 05:18:00;;;;;;;;;0.00;0.00;;;;;12.11;100.00;99331.19;5118809;27;45466;-83
2024/03/09 05:20:26;;;;;;;;;0.00;0.00;;;;;12.12;100.00;99319.84;5118752;27;45502;-83
2024/03/09 05:22:52;;;;;;;;;0.00;0.00;;;;;12.10;100.00;99312.09;5136390;27;46335;-83
2024/03/09 05:25:18;;;;;;;;;0.00;0.00;;;;;12.26;100.00;99304.22;5136738;27;45388;-83
2024/03/09 05:27:47;;;;;;;;;0.00;0.00;;;;;12.09;100.00;99292.19;5136711;27;45442;-83
2024/03/09 05:30:15;;;;;;;;;0.00;0.00;;;;;12.08;100.00;99292.25;5118151;27;45465;-83
2024/03/09 05:33:06;;;;;;;;;0.00;0.00;;;;;12.12;100.00;99296.38;5136717;27;45631;-83
2024/03/09 05:35:34;;;;;;;;;0.00;0.00;;;;;12.10;100.00;99293.84;5122530;27;45366;-83
2024/03/09 05:38:00;;;;;;;;;0.00;0.00;;;;;12.23;100.00;99286.13;5137899;27;45478;-83
2024/03/09 05:40:31;;;;;;;;;0.00;0.00;;;;;12.36;100.00;99273.22;5138140;27;45347;-83
2024/03/09 05:43:01;;;;;;;;;0.00;0.00;;;;;12.38;100.00;99279.16;5138733;27;45363;-83
2024/03/09 05:45:26;;;;;;;;;0.00;0.00;;;;;12.51;100.00;99279.28;5120070;27;45434;-83
2024/03/09 05:47:56;;;;;;;;;0.00;0.00;;;;;12.56;100.00;99272.03;5118347;27;45434;-83
2024/03/09 05:50:31;;;;;;;;;0.00;0.00;;;;;12.52;100.00;99268.75;5140031;27;45279;-83
2024/03/09 05:53:00;;;;;;;;;0.00;0.00;;;;;12.54;100.00;99273.88;5123535;27;45476;-83
2024/03/09 05:55:26;;;;;;;;;0.00;0.00;;;;;12.52;100.00;99291.41;5141482;27;45334;-83
2024/03/09 05:57:53;;;;;;;;;0.00;0.00;;;;;12.48;100.00;99297.72;5123057;27;45404;-83
2024/03/09 06:00:27;;;;;;;;;0.00;0.00;;;;;12.47;100.00;99293.44;5141583;27;45424;-83
2024/03/09 06:02:55;;;;;;;;;9.00;9.00;;;;;12.49;100.00;99304.63;5139613;27;48376;-83
2024/03/09 06:05:28;;;;;;;;;0.00;0.00;;;;;12.49;100.00;99302.03;5121548;27;45567;-82
2024/03/09 06:07:55;;;;;;;;;0.00;0.00;;;;;12.49;100.00;99296.81;5141166;27;45391;-83
2024/03/09 06:10:20;;;;;;;;;0.00;0.00;;;;;12.45;100.00;99300.53;5139172;27;45382;-83
2024/03/09 06:12:52;;;;;;;;;0.00;0.00;;;;;12.47;100.00;99285.63;5101563;27;53105;-83
2024/03/09 06:15:22;;;;;;;;;0.00;0.00;;;;;12.48;100.00;99277.69;5120083;27;45404;-83
2024/03/09 06:17:48;;;;;;;;;0.00;0.00;;;;;12.48;100.00;99274.22;5102272;27;45401;-83
2024/03/09 06:20:15;;;;;;;;;0.00;0.00;;;;;12.47;100.00;99269.97;5101704;27;45398;-83
2024/03/09 06:22:43;;;;;;;;;0.00;0.00;;;;;12.47;100.00;99262.97;5139673;27;45481;-83
2024/03/09 06:25:23;;;;;;;;;0.00;0.00;;;;;12.52;100.00;99273.97;5140833;27;45466;-84
2024/03/09 06:28:05;;;;;;;;;0.00;0.00;;;;;12.56;100.00;99274.63;5123291;27;45413;-83
2024/03/09 06:30:31;;;;;;;;;0.00;0.00;;;;;12.54;100.00;99266.88;5105468;27;45438;-83
2024/03/09 06:32:58;;;;;;;;;0.00;0.00;;;;;12.59;100.00;99280.50;5140673;27;46392;-83
2024/03/09 06:35:26;;;;;;;;;0.00;0.00;;;;;12.63;100.00;99268.09;5140839;27;45398;-83
2024/03/09 06:37:58;;;;;;;;;7.00;6.00;;;;;12.65;100.00;99273.22;5140624;27;47903;-83
2024/03/09 06:40:25;;;;;;;;;0.00;0.00;;;;;12.66;100.00;99275.72;5140610;27;45394;-83
2024/03/09 06:42:55;;;;;;;;;0.00;0.00;;;;;12.71;100.00;99275.47;5104608;27;47690;-83
2024/03/09 06:45:22;;;;;;;;;0.00;0.00;;;;;12.74;100.00;99273.50;5141142;27;45349;-83
2024/03/09 06:47:47;;;;;;;;;0.00;0.00;;;;;12.69;100.00;99270.34;5140932;27;45385;-83
2024/03/09 06:50:14;;;;;;;;;0.00;0.00;;;;;12.72;100.00;99264.94;5140305;27;45330;-82
2024/03/09 06:52:43;;;;;;;;;0.50;0.50;;;;;12.77;100.00;99265.47;5121575;27;47436;-83
2024/03/09 06:55:08;;;;;;;;;0.00;0.00;;;;;12.84;100.00;99272.94;5139920;27;45313;-84
2024/03/09 06:57:35;;;;;;;;;0.00;0.00;;;;;12.83;100.00;99266.03;5140726;27;45583;-83
2024/03/09 07:00:12;;;;;;;;;0.00;0.00;;;;;12.87;100.00;99264.91;5140883;27;45336;-83
2024/03/09 07:02:38;;;;;;;;;0.00;0.00;;;;;12.98;100.00;99265.94;5122072;27;45491;-82
2024/03/09 07:05:04;;;;;;;;;0.00;0.00;;;;;13.05;100.00;99260.31;5132723;27;45382;-83
2024/03/09 07:07:33;;;;;;;;;0.00;0.00;;;;;13.04;100.00;99269.94;5119663;27;45354;-84
2024/03/09 07:09:59;;;;;;;;;0.00;0.00;;;;;13.06;100.00;99269.84;5125735;27;45486;-79
2024/03/09 07:12:24;;;;;;;;;0.00;0.00;;;;;13.09;100.00;99267.03;5118444;27;52724;-79
2024/03/09 07:14:50;;;;;;;;;0.00;0.00;;;;;13.19;100.00;99265.53;5117744;27;64770;-81
2024/03/09 07:17:17;;;;;;;;;0.00;0.00;;;;;13.27;100.00;99268.47;5119128;27;45873;-81
2024/03/09 07:19:45;;;;;;;;;0.00;0.00;;;;;13.31;100.00;99275.22;5118240;27;45465;-80
2024/03/09 07:22:13;;;;;;;;;0.00;0.00;;;;;13.38;100.00;99269.63;5118498;27;46228;-81
2024/03/09 07:24:40;;;;;;;;;0.00;0.00;;;;;13.43;100.00;99257.94;5135009;27;45450;-82
2024/03/09 07:27:07;;;;;;;;;0.00;0.00;;;;;13.52;100.00;99262.56;5139927;27;45566;-82
2024/03/09 07:29:32;;;;;;;;;0.00;0.00;;;;;13.59;100.00;99270.00;5129665;27;45437;-83
2024/03/09 07:31:58;;;;;;;;;0.00;0.00;;;;;13.66;100.00;99273.91;5131702;27;61442;-84
2024/03/09 07:34:24;;;;;;;;;0.00;0.00;;;;;13.68;100.00;99265.00;5126483;27;45487;-83
2024/03/09 07:36:55;;;;;;;;;0.00;0.00;;;;;13.72;100.00;99271.72;5132736;27;60111;-87
2024/03/09 07:39:21;;;;;;;;;0.00;0.00;;;;;13.75;100.00;99274.13;5104026;27;45569;-88
2024/03/09 07:41:46;;;;;;;;;0.00;0.00;;;;;13.83;100.00;99267.56;5119675;27;47393;-85
2024/03/09 07:44:12;;;;;;;;;0.00;0.00;;;;;13.83;100.00;99260.53;5112193;27;45489;-83
2024/03/09 07:46:37;;;;;;;;;0.00;0.00;;;;;13.91;100.00;99253.03;5127088;27;45647;-81
2024/03/09 07:49:02;;;;;;;;;0.00;0.00;;;;;14.00;100.00;99248.94;5107606;27;61386;-82
2024/03/09 07:51:29;;;;;;;;;0.00;0.00;;;;;14.09;100.00;99245.72;5135272;27;46085;-82
2024/03/09 07:53:56;;;;;;;;;0.00;0.00;;;;;14.21;100.00;99244.06;5119863;27;45451;-86
2024/03/09 07:56:21;;;;;;;;;0.00;0.00;;;;;14.27;100.00;99237.59;5107922;27;45492;-84
2024/03/09 07:58:51;;;;;;;;;0.00;0.00;;;;;14.41;100.00;99241.88;5130732;27;45442;-86
2024/03/09 08:01:18;;;;;;;;;0.00;0.00;;;;;14.48;100.00;99236.09;5136531;27;47484;-83
2024/03/09 08:03:45;;;;;;;;;0.00;0.00;;;;;14.57;100.00;99237.28;5133080;27;45553;-87
2024/03/09 08:06:11;;;;;;;;;0.00;0.00;;;;;14.64;100.00;99235.09;5102954;27;45316;-85
2024/03/09 08:08:37;;;;;;;;;0.00;0.00;;;;;14.68;100.00;99234.75;5133137;27;45563;-86
2024/03/09 08:11:03;;;;;;;;;0.00;0.00;;;;;14.72;100.00;99232.75;5104025;27;47050;-87
2024/03/09 08:13:35;;;;;;;;;0.00;0.00;;;;;14.75;100.00;99234.34;5138196;27;45447;-86
2024/03/09 08:16:00;;;;;;;;;0.00;0.00;;;;;14.81;100.00;99232.09;5124386;27;45475;-84
2024/03/09 08:18:26;;;;;;;;;0.00;0.00;;;;;14.88;100.00;99224.66;5099225;27;60264;-84
2024/03/09 08:20:51;;;;;;;;;0.00;0.00;;;;;14.87;100.00;99223.81;5121978;27;63191;-84
2024/03/09 08:23:17;;;;;;;;;0.00;0.00;;;;;14.99;100.00;99222.13;5118843;27;45477;-84
2024/03/09 08:25:42;;;;;;;;;0.00;0.00;;;;;14.73;100.00;99216.09;5127167;27;45350;-84
2024/03/09 08:28:08;;;;;;;;;0.00;0.00;;;;;14.99;100.00;99218.63;5139255;27;45317;-84
2024/03/09 08:30:33;;;;;;;;;0.00;0.00;;;;;15.07;100.00;99217.16;5125434;27;47307;-84
2024/03/09 08:32:59;;;;;;;;;0.00;0.00;;;;;15.17;100.00;99213.88;5099284;27;57100;-85
2024/03/09 08:35:27;;;;;;;;;0.00;0.00;;;;;15.22;100.00;99220.44;5118790;27;45557;-84
2024/03/09 08:37:52;;;;;;;;;0.00;0.00;;;;;15.26;100.00;99213.19;5118305;27;45572;-83
2024/03/09 08:40:19;;;;;;;;;0.00;0.00;;;;;15.32;100.00;99212.75;5106479;27;47200;-83
2024/03/09 08:42:52;;;;;;;;;0.00;0.00;;;;;15.34;100.00;99204.78;5099032;27;45377;-84
2024/03/09 08:45:20;;;;;;;;;0.75;0.75;;;;;15.40;100.00;99205.19;5129201;27;45501;-84
2024/03/09 08:47:45;;;;;;;;;0.00;0.00;;;;;15.35;100.00;99199.44;5135561;27;45882;-84
2024/03/09 08:50:11;;;;;;;;;0.00;0.00;;;;;15.34;99.37;99200.41;5103230;27;47474;-84
2024/03/09 08:52:45;;;;;;;;;0.00;0.00;;;;;15.41;100.00;99192.91;5121470;27;45426;-82
2024/03/09 08:55:11;;;;;;;;;0.00;0.00;;;;;15.51;100.00;99200.91;5118410;27;45414;-85
2024/03/09 08:57:46;;;;;;;;;0.00;0.00;;;;;15.55;99.42;99197.13;5109946;27;45414;-83
2024/03/09 09:00:12;;;;;;;;;0.00;0.00;;;;;15.65;98.52;99192.88;5116640;27;45389;-83
2024/03/09 09:02:38;;;;;;;;;0.00;0.00;;;;;15.70;99.43;99192.53;5098580;27;45351;-84
2024/03/09 09:05:11;;;;;;;;;0.00;0.00;;;;;15.77;99.88;99189.38;5113360;27;46387;-86
2024/03/09 09:07:46;;;;;;;;;0.00;0.00;;;;;15.85;98.78;99176.50;5124202;27;45627;-87
2024/03/09 09:10:12;;;;;;;;;0.00;0.00;;;;;15.98;99.71;99165.06;5123612;27;46532;-85
2024/03/09 09:12:41;;;;;;;;;0.00;0.00;;;;;16.11;99.82;99165.81;5123239;27;45446;-88
2024/03/09 09:15:11;;;;;;;;;0.00;0.00;;;;;16.22;97.85;99165.81;5116259;27;45656;-84
2024/03/09 09:17:36;;;;;;;;;0.00;0.00;;;;;16.29;97.30;99163.56;5116880;27;45558;-82
2024/03/09 09:20:04;;;;;;;;;0.00;0.00;;;;;16.57;98.24;99166.66;5102062;27;46416;-83
2024/03/09 09:22:30;;;;;;;;;0.00;0.00;;;;;16.53;96.89;99154.69;5129444;27;45500;-82
2024/03/09 09:24:56;;;;;;;;;0.00;0.00;;;;;16.49;96.07;99155.88;5126148;27;45382;-83
2024/03/09 09:27:23;;;;;;;;;0.00;0.00;;;;;16.54;95.31;99153.75;5110321;27;45555;-82
2024/03/09 09:29:49;;;;;;;;;0.00;0.00;;;;;16.61;97.12;99147.06;5100123;27;47365;-85
2024/03/09 09:32:14;;;;;;;;;0.00;0.00;;;;;16.70;97.53;99145.50;5117544;27;45487;-83
2024/03/09 09:34:40;;;;;;;;;0.00;0.00;;;;;16.82;95.43;99157.63;5117425;27;57158;-83
2024/03/09 09:37:12;;;;;;;;;0.00;0.00;;;;;16.58;96.04;99137.59;5122892;27;45440;-83
2024/03/09 09:39:37;;;;;;;;;0.00;0.00;;;;;16.60;96.17;99143.59;5114391;27;46346;-81
2024/03/09 09:42:03;;;;;;;;;0.00;0.00;;;;;16.85;97.47;99132.94;5132878;27;45438;-82
2024/03/09 09:44:28;;;;;;;;;0.00;0.00;;;;;17.03;95.87;99134.06;5116235;27;45479;-82
2024/03/09 09:46:55;;;;;;;;;0.00;0.00;;;;;17.11;95.94;99133.47;5120150;27;45434;-82
2024/03/09 09:49:25;;;;;;;;;0.00;0.00;;;;;17.13;92.32;99148.13;5134352;27;45685;-83
2024/03/09 09:51:56;;;;;;;;;0.00;0.00;;;;;17.20;92.75;99145.84;5119725;27;45342;-84
2024/03/09 09:54:27;;;;;;;;;0.00;0.00;;;;;17.30;94.13;99141.50;5103515;27;45585;-84
2024/03/09 09:56:55;;;;;;;;;0.00;0.00;;;;;17.32;94.44;99142.19;5124081;27;45638;-84
2024/03/09 09:59:20;;;;;;;;;0.50;0.50;;;;;17.36;92.94;99142.78;5118241;27;45729;-82
2024/03/09 10:01:46;;;;;;;;;0.00;0.00;;;;;17.41;91.87;99136.19;5105006;27;45404;-84
2024/03/09 10:04:12;;;;;;;;;0.00;0.00;;;;;17.39;89.61;99137.28;5121665;27;45386;-83
2024/03/09 10:06:37;;;;;;;;;0.00;0.00;;;;;17.55;93.21;99128.94;5118108;27;45617;-83
2024/03/09 10:09:02;;;;;;;;;0.00;0.00;;;;;17.63;92.71;99133.59;5119066;27;63312;-85
2024/03/09 10:11:31;;;;;;;;;0.00;0.00;;;;;17.74;89.95;99129.06;5124802;27;45282;-83
2024/03/09 10:13:59;;;;;;;;;0.00;0.00;;;;;17.86;92.79;99134.28;5116464;27;45404;-82
2024/03/09 10:16:29;;;;;;;;;0.00;0.00;;;;;17.91;90.49;99138.19;5126940;27;45524;-81
2024/03/09 10:18:56;;;;;;;;;0.00;0.00;;;;;17.97;93.89;99121.88;5096448;27;45585;-85
2024/03/09 10:21:38;;;;;;;;;0.00;0.00;;;;;17.97;89.35;99132.41;5115149;27;45573;-83
2024/03/09 10:24:04;;;;;;;;;0.00;0.00;;;;;17.93;92.28;99124.91;5114360;27;45496;-83
2024/03/09 10:26:30;;;;;;;;;0.00;0.00;;;;;17.91;90.46;99125.03;5119661;27;45727;-84
2024/03/09 10:28:59;;;;;;;;;0.00;0.00;;;;;17.91;91.10;99122.41;5098356;27;47420;-85
2024/03/09 10:31:26;;;;;;;;;0.00;0.00;;;;;17.91;90.48;99117.16;5109969;27;45839;-84
2024/03/09 10:33:55;;;;;;;;;0.00;0.00;;;;;17.97;91.79;99118.41;5100594;27;45442;-85
2024/03/09 10:36:24;;;;;;;;;0.00;0.00;;;;;17.95;89.52;99122.97;5098989;27;45367;-84
2024/03/09 10:38:51;;;;;;;;;0.00;0.00;;;;;18.01;90.37;99119.81;5118521;27;45636;-84
2024/03/09 10:41:21;;;;;;;;;0.00;0.00;;;;;18.06;89.76;99115.00;5100443;27;45458;-83
2024/03/09 10:43:47;;;;;;;;;0.00;0.00;;;;;18.11;89.37;99114.63;5110897;27;45556;-82
2024/03/09 10:46:18;;;;;;;;;0.00;0.00;;;;;18.23;91.39;99105.63;5113673;27;45385;-84
2024/03/09 10:48:56;;;;;;;;;0.00;0.00;;;;;18.34;90.76;99108.16;5117325;27;46245;-85
2024/03/09 10:51:41;;;;;;;;;0.00;0.00;;;;;18.63;89.11;99098.66;5093747;27;45683;-84
2024/03/09 10:54:11;;;;;;;;;0.00;0.00;;;;;18.91;91.24;99097.91;5131410;27;45819;-84
2024/03/09 10:56:38;;;;;;;;;0.00;0.00;;;;;19.21;90.35;99090.00;5121126;27;45469;-83
2024/03/09 10:59:06;;;;;;;;;0.00;0.00;;;;;19.48;89.19;99078.72;5123037;27;46616;-85
2024/03/09 11:01:31;;;;;;;;;0.00;0.00;;;;;19.66;89.84;99074.38;5102991;27;45877;-83
2024/03/09 11:03:59;;;;;;;;;0.00;0.00;;;;;19.84;86.45;99071.03;5119190;27;59390;-84
2024/03/09 11:06:26;;;;;;;;;0.00;0.00;;;;;20.05;86.30;99068.16;5118475;27;45454;-84
2024/03/09 11:08:53;;;;;;;;;0.00;0.00;;;;;20.25;87.01;99072.38;5102660;27;45533;-83
2024/03/09 11:11:21;;;;;;;;;0.00;0.00;;;;;20.49;82.60;99063.88;5106081;27;45443;-82
2024/03/09 11:13:47;;;;;;;;;0.00;0.00;;;;;20.70;82.02;99057.50;5108671;27;45548;-81
2024/03/09 11:16:14;;;;;;;;;0.00;0.00;;;;;20.81;80.90;99061.75;5098993;27;45785;-84
2024/03/09 11:18:55;;;;;;;;;0.00;0.00;;;;;20.92;84.46;99056.22;5106954;27;46626;-84
2024/03/09 11:21:34;;;;;;;;;0.00;0.00;;;;;20.96;82.17;99068.16;5116599;27;45650;-84
2024/03/09 11:24:07;;;;;;;;;0.00;0.00;;;;;21.02;79.61;99061.44;5098342;27;45447;-84
2024/03/09 11:26:52;;;;;;;;;3.00;0.00;;;;;21.31;79.99;99055.06;5106455;27;45503;-85
2024/03/09 11:29:20;;;;;;;;;0.00;0.00;;;;;21.48;76.88;99048.09;5107841;27;47246;-85
2024/03/09 11:31:46;;;;;;;;;0.00;0.00;;;;;21.64;78.68;99049.03;5121172;27;45447;-85
2024/03/09 11:34:22;;;;;;;;;0.00;0.00;;;;;21.90;76.43;99052.59;5111744;27;45455;-86